sensor_id;sensor_type;location;lat;lon;timestamp;temperature;humidity
25937;DHT22;13733;51.178;4.450;2022-07-06T00:00:31;17.20;99.90
25937;DHT22;13733;51.178;4.450;2022-07-06T00:02:57;17.20;99.90
25937;DHT22;13733;51.178;4.450;2022-07-06T00:05:22;17.20;99.90
25937;DHT22;13733;51.178;4.450;2022-07-06T00:07:48;17.10;99.90
25937;DHT22;13733;51.178;4.450;2022-07-06T00:10:14;17.10;99.90
25937;DHT22;13733;51.178;4.450;2022-07-06T00:12:40;17.00;99.90
25937;DHT22;13733;51.178;4.450;2022-07-06T00:15:05;16.90;99.90
25937;DHT22;13733;51.178;4.450;2022-07-06T00:17:31;16.80;99.90
25937;DHT22;13733;51.178;4.450;2022-07-06T00:19:57;16.80;99.90
25937;DHT22;13733;51.178;4.450;2022-07-06T00:22:23;16.70;99.90
25937;DHT22;13733;51.178;4.450;2022-07-06T00:24:48;16.80;99.90
25937;DHT22;13733;51.178;4.450;2022-07-06T00:27:15;16.80;99.90
25937;DHT22;13733;51.178;4.450;2022-07-06T00:29:43;16.80;99.90
25937;DHT22;13733;51.178;4.450;2022-07-06T00:32:10;16.80;99.90
25937;DHT22;13733;51.178;4.450;2022-07-06T00:34:37;16.70;99.90
25937;DHT22;13733;51.178;4.450;2022-07-06T00:37:05;16.70;99.90
25937;DHT22;13733;51.178;4.450;2022-07-06T00:39:31;16.80;99.90
25937;DHT22;13733;51.178;4.450;2022-07-06T00:41:57;16.80;99.90
25937;DHT22;13733;51.178;4.450;2022-07-06T00:44:23;16.70;99.90
25937;DHT22;13733;51.178;4.450;2022-07-06T00:46:48;16.70;99.90
25937;DHT22;13733;51.178;4.450;2022-07-06T00:49:14;16.60;99.90
25937;DHT22;13733;51.178;4.450;2022-07-06T00:51:59;16.60;99.90
25937;DHT22;13733;51.178;4.450;2022-07-06T00:54:25;16.70;99.90
25937;DHT22;13733;51.178;4.450;2022-07-06T00:56:51;16.60;99.90
25937;DHT22;13733;51.178;4.450;2022-07-06T00:59:17;16.60;99.90
25937;DHT22;13733;51.178;4.450;2022-07-06T01:01:43;16.50;99.90
25937;DHT22;13733;51.178;4.450;2022-07-06T01:04:09;16.40;99.90
25937;DHT22;13733;51.178;4.450;2022-07-06T01:06:34;16.40;99.90
25937;DHT22;13733;51.178;4.450;2022-07-06T01:09:00;16.30;99.90
25937;DHT22;13733;51.178;4.450;2022-07-06T01:11:26;16.30;99.90
25937;DHT22;13733;51.178;4.450;2022-07-06T01:13:52;16.30;99.90
25937;DHT22;13733;51.178;4.450;2022-07-06T01:16:19;16.20;99.90
25937;DHT22;13733;51.178;4.450;2022-07-06T01:18:45;16.20;99.90
25937;DHT22;13733;51.178;4.450;2022-07-06T01:21:13;16.20;99.90
25937;DHT22;13733;51.178;4.450;2022-07-06T01:23:40;16.10;99.90
25937;DHT22;13733;51.178;4.450;2022-07-06T01:26:05;16.10;99.90
25937;DHT22;13733;51.178;4.450;2022-07-06T01:28:31;16.10;99.90
25937;DHT22;13733;51.178;4.450;2022-07-06T01:30:57;16.10;99.90
25937;DHT22;13733;51.178;4.450;2022-07-06T01:33:23;16.00;99.90
25937;DHT22;13733;51.178;4.450;2022-07-06T01:35:49;16.00;99.90
25937;DHT22;13733;51.178;4.450;2022-07-06T01:38:16;15.90;99.90
25937;DHT22;13733;51.178;4.450;2022-07-06T01:40:41;15.90;99.90
25937;DHT22;13733;51.178;4.450;2022-07-06T01:43:07;16.00;99.90
25937;DHT22;13733;51.178;4.450;2022-07-06T01:45:33;16.00;99.90
25937;DHT22;13733;51.178;4.450;2022-07-06T01:47:59;16.00;99.90
25937;DHT22;13733;51.178;4.450;2022-07-06T01:50:24;16.00;99.90
25937;DHT22;13733;51.178;4.450;2022-07-06T01:52:50;16.00;99.90
25937;DHT22;13733;51.178;4.450;2022-07-06T01:55:16;15.90;99.90
25937;DHT22;13733;51.178;4.450;2022-07-06T01:57:44;15.80;99.90
25937;DHT22;13733;51.178;4.450;2022-07-06T02:00:11;15.70;99.90
25937;DHT22;13733;51.178;4.450;2022-07-06T02:02:43;15.60;99.90
25937;DHT22;13733;51.178;4.450;2022-07-06T02:05:12;15.60;99.90
25937;DHT22;13733;51.178;4.450;2022-07-06T02:07:37;15.70;99.90
25937;DHT22;13733;51.178;4.450;2022-07-06T02:10:03;15.80;99.90
25937;DHT22;13733;51.178;4.450;2022-07-06T02:12:29;15.90;99.90
25937;DHT22;13733;51.178;4.450;2022-07-06T02:14:55;15.90;99.90
25937;DHT22;13733;51.178;4.450;2022-07-06T02:17:20;16.00;99.90
25937;DHT22;13733;51.178;4.450;2022-07-06T02:19:46;16.30;99.90
25937;DHT22;13733;51.178;4.450;2022-07-06T02:22:12;16.10;99.90
25937;DHT22;13733;51.178;4.450;2022-07-06T02:24:37;16.20;99.90
25937;DHT22;13733;51.178;4.450;2022-07-06T02:27:03;16.20;99.90
25937;DHT22;13733;51.178;4.450;2022-07-06T02:29:29;16.20;99.90
25937;DHT22;13733;51.178;4.450;2022-07-06T02:31:55;16.20;99.90
25937;DHT22;13733;51.178;4.450;2022-07-06T02:34:21;16.30;99.90
25937;DHT22;13733;51.178;4.450;2022-07-06T02:36:48;16.40;99.90
25937;DHT22;13733;51.178;4.450;2022-07-06T02:39:15;16.30;99.90
25937;DHT22;13733;51.178;4.450;2022-07-06T02:41:41;16.30;99.90
25937;DHT22;13733;51.178;4.450;2022-07-06T02:44:07;16.30;99.90
25937;DHT22;13733;51.178;4.450;2022-07-06T02:46:33;16.10;99.90
25937;DHT22;13733;51.178;4.450;2022-07-06T02:48:59;16.00;99.90
25937;DHT22;13733;51.178;4.450;2022-07-06T02:51:25;15.80;99.90
25937;DHT22;13733;51.178;4.450;2022-07-06T02:53:50;15.80;99.90
25937;DHT22;13733;51.178;4.450;2022-07-06T02:56:17;15.80;99.90
25937;DHT22;13733;51.178;4.450;2022-07-06T02:58:43;15.80;99.90
25937;DHT22;13733;51.178;4.450;2022-07-06T03:01:08;15.90;99.90
25937;DHT22;13733;51.178;4.450;2022-07-06T03:03:35;15.80;99.90
25937;DHT22;13733;51.178;4.450;2022-07-06T03:06:01;15.90;99.90
25937;DHT22;13733;51.178;4.450;2022-07-06T03:08:29;16.00;99.90
25937;DHT22;13733;51.178;4.450;2022-07-06T03:10:55;16.10;99.90
25937;DHT22;13733;51.178;4.450;2022-07-06T03:13:21;16.20;99.90
25937;DHT22;13733;51.178;4.450;2022-07-06T03:15:47;16.20;99.90
25937;DHT22;13733;51.178;4.450;2022-07-06T03:18:13;16.20;99.90
25937;DHT22;13733;51.178;4.450;2022-07-06T03:20:39;16.30;99.90
25937;DHT22;13733;51.178;4.450;2022-07-06T03:23:08;16.30;99.90
25937;DHT22;13733;51.178;4.450;2022-07-06T03:25:34;16.30;99.90
25937;DHT22;13733;51.178;4.450;2022-07-06T03:28:01;16.30;99.90
25937;DHT22;13733;51.178;4.450;2022-07-06T03:30:26;16.40;99.90
25937;DHT22;13733;51.178;4.450;2022-07-06T03:32:54;16.40;99.90
25937;DHT22;13733;51.178;4.450;2022-07-06T03:35:21;16.40;99.90
25937;DHT22;13733;51.178;4.450;2022-07-06T03:37:50;16.30;99.90
25937;DHT22;13733;51.178;4.450;2022-07-06T03:40:16;16.30;99.90
25937;DHT22;13733;51.178;4.450;2022-07-06T03:42:44;16.20;99.90
25937;DHT22;13733;51.178;4.450;2022-07-06T03:45:10;16.20;99.90
25937;DHT22;13733;51.178;4.450;2022-07-06T03:47:37;16.20;99.90
25937;DHT22;13733;51.178;4.450;2022-07-06T03:50:03;16.20;99.90
25937;DHT22;13733;51.178;4.450;2022-07-06T03:52:29;16.20;99.90
25937;DHT22;13733;51.178;4.450;2022-07-06T03:54:55;16.20;99.90
25937;DHT22;13733;51.178;4.450;2022-07-06T03:57:26;16.10;99.90
25937;DHT22;13733;51.178;4.450;2022-07-06T03:59:53;16.20;99.90
25937;DHT22;13733;51.178;4.450;2022-07-06T04:02:20;16.20;99.90
25937;DHT22;13733;51.178;4.450;2022-07-06T04:04:48;16.10;99.90
25937;DHT22;13733;51.178;4.450;2022-07-06T04:07:14;16.10;99.90
25937;DHT22;13733;51.178;4.450;2022-07-06T04:09:40;16.10;99.90
25937;DHT22;13733;51.178;4.450;2022-07-06T04:12:07;16.10;99.90
25937;DHT22;13733;51.178;4.450;2022-07-06T04:14:33;16.10;99.90
25937;DHT22;13733;51.178;4.450;2022-07-06T04:17:00;16.10;99.90
25937;DHT22;13733;51.178;4.450;2022-07-06T04:19:46;16.10;99.90
25937;DHT22;13733;51.178;4.450;2022-07-06T04:22:12;16.10;99.90
25937;DHT22;13733;51.178;4.450;2022-07-06T04:24:38;16.00;99.90
25937;DHT22;13733;51.178;4.450;2022-07-06T04:27:04;16.00;99.90
25937;DHT22;13733;51.178;4.450;2022-07-06T04:29:31;15.90;99.90
25937;DHT22;13733;51.178;4.450;2022-07-06T04:31:57;15.90;99.90
25937;DHT22;13733;51.178;4.450;2022-07-06T04:34:22;15.90;99.90
25937;DHT22;13733;51.178;4.450;2022-07-06T04:36:49;16.00;99.90
25937;DHT22;13733;51.178;4.450;2022-07-06T04:39:15;15.90;99.90
25937;DHT22;13733;51.178;4.450;2022-07-06T04:41:40;16.00;99.90
25937;DHT22;13733;51.178;4.450;2022-07-06T04:44:06;16.00;99.90
25937;DHT22;13733;51.178;4.450;2022-07-06T04:46:32;16.10;99.90
25937;DHT22;13733;51.178;4.450;2022-07-06T04:48:58;16.10;99.90
25937;DHT22;13733;51.178;4.450;2022-07-06T04:51:29;16.20;99.90
25937;DHT22;13733;51.178;4.450;2022-07-06T04:53:54;16.20;99.90
25937;DHT22;13733;51.178;4.450;2022-07-06T04:56:21;16.10;99.90
25937;DHT22;13733;51.178;4.450;2022-07-06T04:58:48;16.10;99.90
25937;DHT22;13733;51.178;4.450;2022-07-06T05:01:16;16.20;99.90
25937;DHT22;13733;51.178;4.450;2022-07-06T05:03:42;16.30;99.90
25937;DHT22;13733;51.178;4.450;2022-07-06T05:06:10;16.30;99.90
25937;DHT22;13733;51.178;4.450;2022-07-06T05:08:37;16.40;99.90
25937;DHT22;13733;51.178;4.450;2022-07-06T05:11:04;16.40;99.90
25937;DHT22;13733;51.178;4.450;2022-07-06T05:13:30;16.30;99.90
25937;DHT22;13733;51.178;4.450;2022-07-06T05:15:56;16.30;99.90
25937;DHT22;13733;51.178;4.450;2022-07-06T05:18:21;16.10;99.90
25937;DHT22;13733;51.178;4.450;2022-07-06T05:20:48;16.00;99.90
25937;DHT22;13733;51.178;4.450;2022-07-06T05:23:14;15.90;99.90
25937;DHT22;13733;51.178;4.450;2022-07-06T05:25:40;16.00;99.90
25937;DHT22;13733;51.178;4.450;2022-07-06T05:28:06;16.00;99.90
25937;DHT22;13733;51.178;4.450;2022-07-06T05:30:31;16.10;99.90
25937;DHT22;13733;51.178;4.450;2022-07-06T05:32:57;16.20;99.90
25937;DHT22;13733;51.178;4.450;2022-07-06T05:35:23;16.40;99.90
25937;DHT22;13733;51.178;4.450;2022-07-06T05:37:49;16.50;99.90
25937;DHT22;13733;51.178;4.450;2022-07-06T05:40:15;16.70;99.90
25937;DHT22;13733;51.178;4.450;2022-07-06T05:42:41;16.80;99.90
25937;DHT22;13733;51.178;4.450;2022-07-06T05:45:07;17.00;99.90
25937;DHT22;13733;51.178;4.450;2022-07-06T05:47:33;17.00;99.90
25937;DHT22;13733;51.178;4.450;2022-07-06T05:50:18;17.20;99.90
25937;DHT22;13733;51.178;4.450;2022-07-06T05:52:59;17.20;99.90
25937;DHT22;13733;51.178;4.450;2022-07-06T05:55:26;17.20;99.90
25937;DHT22;13733;51.178;4.450;2022-07-06T05:57:53;17.40;99.90
25937;DHT22;13733;51.178;4.450;2022-07-06T06:00:20;17.50;99.90
25937;DHT22;13733;51.178;4.450;2022-07-06T06:02:51;17.60;99.90
25937;DHT22;13733;51.178;4.450;2022-07-06T06:05:18;17.80;99.90
25937;DHT22;13733;51.178;4.450;2022-07-06T06:07:46;17.90;99.90
25937;DHT22;13733;51.178;4.450;2022-07-06T06:10:14;18.00;99.90
25937;DHT22;13733;51.178;4.450;2022-07-06T06:12:40;18.20;99.90
25937;DHT22;13733;51.178;4.450;2022-07-06T06:15:07;18.30;99.90
25937;DHT22;13733;51.178;4.450;2022-07-06T06:17:33;18.20;99.90
25937;DHT22;13733;51.178;4.450;2022-07-06T06:19:59;18.10;99.90
25937;DHT22;13733;51.178;4.450;2022-07-06T06:22:24;18.10;99.90
25937;DHT22;13733;51.178;4.450;2022-07-06T06:24:50;18.20;99.90
25937;DHT22;13733;51.178;4.450;2022-07-06T06:27:16;18.20;99.90
25937;DHT22;13733;51.178;4.450;2022-07-06T06:29:42;18.40;99.90
25937;DHT22;13733;51.178;4.450;2022-07-06T06:32:10;18.60;99.90
25937;DHT22;13733;51.178;4.450;2022-07-06T06:34:35;18.70;99.90
25937;DHT22;13733;51.178;4.450;2022-07-06T06:37:01;18.80;99.90
25937;DHT22;13733;51.178;4.450;2022-07-06T06:39:27;18.60;99.90
25937;DHT22;13733;51.178;4.450;2022-07-06T06:41:53;18.60;99.90
25937;DHT22;13733;51.178;4.450;2022-07-06T06:44:18;18.70;99.90
25937;DHT22;13733;51.178;4.450;2022-07-06T06:46:44;18.80;99.90
25937;DHT22;13733;51.178;4.450;2022-07-06T06:49:10;19.00;99.90
25937;DHT22;13733;51.178;4.450;2022-07-06T06:51:36;18.90;99.90
25937;DHT22;13733;51.178;4.450;2022-07-06T06:54:03;18.90;99.90
25937;DHT22;13733;51.178;4.450;2022-07-06T06:56:30;19.20;99.90
25937;DHT22;13733;51.178;4.450;2022-07-06T06:58:56;19.40;99.90
25937;DHT22;13733;51.178;4.450;2022-07-06T07:01:22;19.50;99.90
25937;DHT22;13733;51.178;4.450;2022-07-06T07:03:47;19.40;99.90
25937;DHT22;13733;51.178;4.450;2022-07-06T07:06:13;19.40;99.90
25937;DHT22;13733;51.178;4.450;2022-07-06T07:08:38;19.40;99.90
25937;DHT22;13733;51.178;4.450;2022-07-06T07:11:04;19.50;99.90
25937;DHT22;13733;51.178;4.450;2022-07-06T07:13:30;19.60;99.90
25937;DHT22;13733;51.178;4.450;2022-07-06T07:15:55;19.70;99.90
25937;DHT22;13733;51.178;4.450;2022-07-06T07:18:21;19.70;99.90
25937;DHT22;13733;51.178;4.450;2022-07-06T07:20:47;19.80;99.90
25937;DHT22;13733;51.178;4.450;2022-07-06T07:23:12;19.80;99.90
25937;DHT22;13733;51.178;4.450;2022-07-06T07:25:38;19.80;99.90
25937;DHT22;13733;51.178;4.450;2022-07-06T07:28:06;19.70;99.90
25937;DHT22;13733;51.178;4.450;2022-07-06T07:30:32;19.50;99.90
25937;DHT22;13733;51.178;4.450;2022-07-06T07:32:57;19.60;99.90
25937;DHT22;13733;51.178;4.450;2022-07-06T07:35:25;19.60;99.90
25937;DHT22;13733;51.178;4.450;2022-07-06T07:37:51;19.60;99.90
25937;DHT22;13733;51.178;4.450;2022-07-06T07:40:16;19.70;99.90
25937;DHT22;13733;51.178;4.450;2022-07-06T07:42:42;19.50;99.90
25937;DHT22;13733;51.178;4.450;2022-07-06T07:45:08;19.30;99.90
25937;DHT22;13733;51.178;4.450;2022-07-06T07:47:34;19.10;99.90
25937;DHT22;13733;51.178;4.450;2022-07-06T07:50:00;19.30;99.90
25937;DHT22;13733;51.178;4.450;2022-07-06T07:52:25;19.40;99.90
25937;DHT22;13733;51.178;4.450;2022-07-06T07:54:51;19.70;99.90
25937;DHT22;13733;51.178;4.450;2022-07-06T07:57:16;20.00;99.90
25937;DHT22;13733;51.178;4.450;2022-07-06T07:59:42;20.30;99.90
25937;DHT22;13733;51.178;4.450;2022-07-06T08:02:08;20.40;99.90
25937;DHT22;13733;51.178;4.450;2022-07-06T08:04:33;20.70;99.90
25937;DHT22;13733;51.178;4.450;2022-07-06T08:06:59;20.80;99.90
25937;DHT22;13733;51.178;4.450;2022-07-06T08:09:25;20.90;99.10
25937;DHT22;13733;51.178;4.450;2022-07-06T08:11:50;21.00;99.10
25937;DHT22;13733;51.178;4.450;2022-07-06T08:14:16;21.00;99.60
25937;DHT22;13733;51.178;4.450;2022-07-06T08:16:42;20.80;98.80
25937;DHT22;13733;51.178;4.450;2022-07-06T08:19:08;20.80;99.20
25937;DHT22;13733;51.178;4.450;2022-07-06T08:21:33;20.80;99.00
25937;DHT22;13733;51.178;4.450;2022-07-06T08:23:59;20.90;99.30
25937;DHT22;13733;51.178;4.450;2022-07-06T08:26:26;21.20;99.20
25937;DHT22;13733;51.178;4.450;2022-07-06T08:28:51;21.10;97.60
25937;DHT22;13733;51.178;4.450;2022-07-06T08:31:17;21.10;98.40
25937;DHT22;13733;51.178;4.450;2022-07-06T08:33:43;21.30;98.30
25937;DHT22;13733;51.178;4.450;2022-07-06T08:36:09;21.60;97.30
25937;DHT22;13733;51.178;4.450;2022-07-06T08:38:35;22.10;96.10
25937;DHT22;13733;51.178;4.450;2022-07-06T08:41:00;22.30;95.00
25937;DHT22;13733;51.178;4.450;2022-07-06T08:43:26;22.80;94.20
25937;DHT22;13733;51.178;4.450;2022-07-06T08:45:53;22.90;93.10
25937;DHT22;13733;51.178;4.450;2022-07-06T08:48:19;23.00;91.90
25937;DHT22;13733;51.178;4.450;2022-07-06T08:50:47;23.10;91.30
25937;DHT22;13733;51.178;4.450;2022-07-06T08:53:15;23.00;91.90
25937;DHT22;13733;51.178;4.450;2022-07-06T08:55:41;23.20;91.60
25937;DHT22;13733;51.178;4.450;2022-07-06T08:58:07;23.00;91.30
25937;DHT22;13733;51.178;4.450;2022-07-06T09:00:33;22.70;91.30
25937;DHT22;13733;51.178;4.450;2022-07-06T09:02:59;22.60;92.00
25937;DHT22;13733;51.178;4.450;2022-07-06T09:05:25;22.60;92.00
25937;DHT22;13733;51.178;4.450;2022-07-06T09:07:51;22.70;91.70
25937;DHT22;13733;51.178;4.450;2022-07-06T09:10:17;22.80;91.50
25937;DHT22;13733;51.178;4.450;2022-07-06T09:12:44;23.00;91.70
25937;DHT22;13733;51.178;4.450;2022-07-06T09:15:09;23.10;91.60
25937;DHT22;13733;51.178;4.450;2022-07-06T09:17:37;23.10;90.80
25937;DHT22;13733;51.178;4.450;2022-07-06T09:20:04;22.90;91.50
25937;DHT22;13733;51.178;4.450;2022-07-06T09:22:31;22.80;91.90
25937;DHT22;13733;51.178;4.450;2022-07-06T09:25:01;22.70;91.50
25937;DHT22;13733;51.178;4.450;2022-07-06T09:27:28;22.70;91.30
25937;DHT22;13733;51.178;4.450;2022-07-06T09:29:53;22.60;91.70
25937;DHT22;13733;51.178;4.450;2022-07-06T09:32:19;22.40;91.70
25937;DHT22;13733;51.178;4.450;2022-07-06T09:34:46;22.40;91.90
25937;DHT22;13733;51.178;4.450;2022-07-06T09:37:12;22.60;91.90
25937;DHT22;13733;51.178;4.450;2022-07-06T09:39:38;22.70;92.10
25937;DHT22;13733;51.178;4.450;2022-07-06T09:42:05;23.10;92.40
25937;DHT22;13733;51.178;4.450;2022-07-06T09:44:40;23.50;91.50
25937;DHT22;13733;51.178;4.450;2022-07-06T09:47:09;23.90;90.40
25937;DHT22;13733;51.178;4.450;2022-07-06T09:49:36;23.90;88.90
25937;DHT22;13733;51.178;4.450;2022-07-06T09:52:05;23.90;87.50
25937;DHT22;13733;51.178;4.450;2022-07-06T09:54:32;24.10;88.30
25937;DHT22;13733;51.178;4.450;2022-07-06T09:56:58;24.10;87.90
25937;DHT22;13733;51.178;4.450;2022-07-06T09:59:24;23.90;88.90
25937;DHT22;13733;51.178;4.450;2022-07-06T10:01:52;24.10;86.90
25937;DHT22;13733;51.178;4.450;2022-07-06T10:04:18;24.50;86.50
25937;DHT22;13733;51.178;4.450;2022-07-06T10:06:45;24.60;85.40
25937;DHT22;13733;51.178;4.450;2022-07-06T10:09:12;24.80;83.40
25937;DHT22;13733;51.178;4.450;2022-07-06T10:11:38;24.70;84.20
25937;DHT22;13733;51.178;4.450;2022-07-06T10:14:05;24.70;82.90
25937;DHT22;13733;51.178;4.450;2022-07-06T10:16:31;25.00;82.40
25937;DHT22;13733;51.178;4.450;2022-07-06T10:18:57;25.00;80.40
25937;DHT22;13733;51.178;4.450;2022-07-06T10:21:24;25.00;81.30
25937;DHT22;13733;51.178;4.450;2022-07-06T10:23:50;24.90;80.20
25937;DHT22;13733;51.178;4.450;2022-07-06T10:26:16;24.70;81.30
25937;DHT22;13733;51.178;4.450;2022-07-06T10:28:42;24.80;82.10
25937;DHT22;13733;51.178;4.450;2022-07-06T10:31:09;25.10;81.20
25937;DHT22;13733;51.178;4.450;2022-07-06T10:33:36;25.40;80.70
25937;DHT22;13733;51.178;4.450;2022-07-06T10:36:02;25.40;78.70
25937;DHT22;13733;51.178;4.450;2022-07-06T10:38:31;25.40;77.30
25937;DHT22;13733;51.178;4.450;2022-07-06T10:41:01;25.30;77.40
25937;DHT22;13733;51.178;4.450;2022-07-06T10:43:35;25.10;77.50
25937;DHT22;13733;51.178;4.450;2022-07-06T10:46:10;25.00;77.20
25937;DHT22;13733;51.178;4.450;2022-07-06T10:48:37;25.00;78.10
25937;DHT22;13733;51.178;4.450;2022-07-06T10:51:04;25.20;78.30
25937;DHT22;13733;51.178;4.450;2022-07-06T10:53:34;25.30;76.50
25937;DHT22;13733;51.178;4.450;2022-07-06T10:56:01;25.40;77.00
25937;DHT22;13733;51.178;4.450;2022-07-06T10:59:01;25.50;78.30
25937;DHT22;13733;51.178;4.450;2022-07-06T11:01:21;26.10;76.10
25937;DHT22;13733;51.178;4.450;2022-07-06T11:06:22;26.80;71.50
25937;DHT22;13733;51.178;4.450;2022-07-06T11:13:49;27.30;67.70
25937;DHT22;13733;51.178;4.450;2022-07-06T11:16:16;27.80;64.50
25937;DHT22;13733;51.178;4.450;2022-07-06T11:18:49;27.80;65.30
25937;DHT22;13733;51.178;4.450;2022-07-06T11:21:24;27.90;64.80
25937;DHT22;13733;51.178;4.450;2022-07-06T11:23:57;28.10;62.70
25937;DHT22;13733;51.178;4.450;2022-07-06T11:26:23;27.90;61.90
25937;DHT22;13733;51.178;4.450;2022-07-06T11:28:49;27.70;60.40
25937;DHT22;13733;51.178;4.450;2022-07-06T11:31:16;27.30;64.00
25937;DHT22;13733;51.178;4.450;2022-07-06T11:33:45;27.40;65.10
25937;DHT22;13733;51.178;4.450;2022-07-06T11:36:11;27.50;61.00
25937;DHT22;13733;51.178;4.450;2022-07-06T11:38:37;27.60;59.70
25937;DHT22;13733;51.178;4.450;2022-07-06T11:41:03;27.60;59.70
25937;DHT22;13733;51.178;4.450;2022-07-06T11:43:28;26.90;58.80
25937;DHT22;13733;51.178;4.450;2022-07-06T11:45:54;26.20;61.20
25937;DHT22;13733;51.178;4.450;2022-07-06T11:48:20;25.80;62.10
25937;DHT22;13733;51.178;4.450;2022-07-06T11:51:01;25.50;64.00
25937;DHT22;13733;51.178;4.450;2022-07-06T11:53:27;25.80;61.70
25937;DHT22;13733;51.178;4.450;2022-07-06T11:55:53;26.10;60.20
25937;DHT22;13733;51.178;4.450;2022-07-06T11:58:22;26.30;60.60
25937;DHT22;13733;51.178;4.450;2022-07-06T12:01:07;26.30;60.00
25937;DHT22;13733;51.178;4.450;2022-07-06T12:03:34;26.20;61.00
25937;DHT22;13733;51.178;4.450;2022-07-06T12:06:03;26.30;62.60
25937;DHT22;13733;51.178;4.450;2022-07-06T12:08:29;27.30;63.20
25937;DHT22;13733;51.178;4.450;2022-07-06T12:10:55;28.60;61.00
25937;DHT22;13733;51.178;4.450;2022-07-06T12:13:21;30.10;58.70
25937;DHT22;13733;51.178;4.450;2022-07-06T12:15:46;30.90;55.10
25937;DHT22;13733;51.178;4.450;2022-07-06T12:18:12;29.90;53.30
25937;DHT22;13733;51.178;4.450;2022-07-06T12:20:38;28.80;54.70
25937;DHT22;13733;51.178;4.450;2022-07-06T12:23:04;28.50;55.40
25937;DHT22;13733;51.178;4.450;2022-07-06T12:25:30;28.10;55.70
25937;DHT22;13733;51.178;4.450;2022-07-06T12:27:56;27.30;56.80
25937;DHT22;13733;51.178;4.450;2022-07-06T12:30:22;27.40;59.00
25937;DHT22;13733;51.178;4.450;2022-07-06T12:33:10;28.30;55.30
25937;DHT22;13733;51.178;4.450;2022-07-06T12:35:33;29.30;54.20
25937;DHT22;13733;51.178;4.450;2022-07-06T12:37:59;29.30;54.10
25937;DHT22;13733;51.178;4.450;2022-07-06T12:40:26;28.90;54.90
25937;DHT22;13733;51.178;4.450;2022-07-06T12:42:53;28.10;54.40
25937;DHT22;13733;51.178;4.450;2022-07-06T12:45:19;28.90;54.80
25937;DHT22;13733;51.178;4.450;2022-07-06T12:47:57;29.10;54.40
25937;DHT22;13733;51.178;4.450;2022-07-06T12:50:30;29.40;52.70
25937;DHT22;13733;51.178;4.450;2022-07-06T12:52:56;29.20;53.00
25937;DHT22;13733;51.178;4.450;2022-07-06T12:55:25;28.40;53.70
25937;DHT22;13733;51.178;4.450;2022-07-06T12:57:51;27.70;55.00
25937;DHT22;13733;51.178;4.450;2022-07-06T13:00:17;27.80;56.10
25937;DHT22;13733;51.178;4.450;2022-07-06T13:02:44;27.70;55.80
25937;DHT22;13733;51.178;4.450;2022-07-06T13:05:11;27.80;55.50
25937;DHT22;13733;51.178;4.450;2022-07-06T13:07:38;28.50;55.20
25937;DHT22;13733;51.178;4.450;2022-07-06T13:10:08;29.00;54.40
25937;DHT22;13733;51.178;4.450;2022-07-06T13:12:34;28.50;55.00
25937;DHT22;13733;51.178;4.450;2022-07-06T13:14:59;28.40;55.40
25937;DHT22;13733;51.178;4.450;2022-07-06T13:17:25;28.40;56.30
25937;DHT22;13733;51.178;4.450;2022-07-06T13:19:51;28.10;57.60
25937;DHT22;13733;51.178;4.450;2022-07-06T13:22:17;28.10;58.60
25937;DHT22;13733;51.178;4.450;2022-07-06T13:24:43;28.20;58.60
25937;DHT22;13733;51.178;4.450;2022-07-06T13:27:09;27.80;59.30
25937;DHT22;13733;51.178;4.450;2022-07-06T13:29:35;27.80;60.20
25937;DHT22;13733;51.178;4.450;2022-07-06T13:32:01;27.80;59.60
25937;DHT22;13733;51.178;4.450;2022-07-06T13:34:26;27.70;59.20
25937;DHT22;13733;51.178;4.450;2022-07-06T13:36:52;27.80;59.60
25937;DHT22;13733;51.178;4.450;2022-07-06T13:39:18;27.80;60.10
25937;DHT22;13733;51.178;4.450;2022-07-06T13:41:44;27.70;60.80
25937;DHT22;13733;51.178;4.450;2022-07-06T13:44:10;27.50;62.20
25937;DHT22;13733;51.178;4.450;2022-07-06T13:46:37;27.90;61.50
25937;DHT22;13733;51.178;4.450;2022-07-06T13:49:03;27.80;61.10
25937;DHT22;13733;51.178;4.450;2022-07-06T13:51:29;27.70;61.20
25937;DHT22;13733;51.178;4.450;2022-07-06T13:53:56;27.60;62.40
25937;DHT22;13733;51.178;4.450;2022-07-06T13:56:22;27.20;63.30
25937;DHT22;13733;51.178;4.450;2022-07-06T13:58:48;26.60;63.80
25937;DHT22;13733;51.178;4.450;2022-07-06T14:01:13;26.40;64.90
25937;DHT22;13733;51.178;4.450;2022-07-06T14:03:39;26.00;65.40
25937;DHT22;13733;51.178;4.450;2022-07-06T14:06:06;25.70;66.80
25937;DHT22;13733;51.178;4.450;2022-07-06T14:08:33;25.30;68.30
25937;DHT22;13733;51.178;4.450;2022-07-06T14:10:59;25.30;69.60
25937;DHT22;13733;51.178;4.450;2022-07-06T14:13:26;25.70;70.20
25937;DHT22;13733;51.178;4.450;2022-07-06T14:15:52;26.20;68.70
25937;DHT22;13733;51.178;4.450;2022-07-06T14:18:18;26.10;69.10
25937;DHT22;13733;51.178;4.450;2022-07-06T14:20:44;26.20;69.70
25937;DHT22;13733;51.178;4.450;2022-07-06T14:23:10;26.40;69.40
25937;DHT22;13733;51.178;4.450;2022-07-06T14:25:36;26.30;68.50
25937;DHT22;13733;51.178;4.450;2022-07-06T14:28:02;26.50;68.40
25937;DHT22;13733;51.178;4.450;2022-07-06T14:30:28;26.50;67.40
25937;DHT22;13733;51.178;4.450;2022-07-06T14:32:54;26.70;67.90
25937;DHT22;13733;51.178;4.450;2022-07-06T14:35:19;27.10;68.00
25937;DHT22;13733;51.178;4.450;2022-07-06T14:37:45;27.10;67.40
25937;DHT22;13733;51.178;4.450;2022-07-06T14:40:12;27.30;66.50
25937;DHT22;13733;51.178;4.450;2022-07-06T14:42:38;27.40;65.70
25937;DHT22;13733;51.178;4.450;2022-07-06T14:45:04;27.30;65.20
25937;DHT22;13733;51.178;4.450;2022-07-06T14:47:29;27.50;65.50
25937;DHT22;13733;51.178;4.450;2022-07-06T14:49:55;27.60;64.10
25937;DHT22;13733;51.178;4.450;2022-07-06T14:52:21;27.50;64.30
25937;DHT22;13733;51.178;4.450;2022-07-06T14:54:46;27.30;64.40
25937;DHT22;13733;51.178;4.450;2022-07-06T14:57:12;27.30;64.40
25937;DHT22;13733;51.178;4.450;2022-07-06T14:59:38;27.00;64.40
25937;DHT22;13733;51.178;4.450;2022-07-06T15:02:04;26.80;66.30
25937;DHT22;13733;51.178;4.450;2022-07-06T15:04:29;26.60;65.60
25937;DHT22;13733;51.178;4.450;2022-07-06T15:06:55;26.30;66.10
25937;DHT22;13733;51.178;4.450;2022-07-06T15:09:21;26.10;68.00
25937;DHT22;13733;51.178;4.450;2022-07-06T15:11:46;25.90;68.20
25937;DHT22;13733;51.178;4.450;2022-07-06T15:14:12;26.00;68.50
25937;DHT22;13733;51.178;4.450;2022-07-06T15:16:38;26.10;67.80
25937;DHT22;13733;51.178;4.450;2022-07-06T15:19:04;26.30;68.60
25937;DHT22;13733;51.178;4.450;2022-07-06T15:21:30;27.30;66.20
25937;DHT22;13733;51.178;4.450;2022-07-06T15:23:56;27.90;63.60
25937;DHT22;13733;51.178;4.450;2022-07-06T15:26:22;27.40;63.60
25937;DHT22;13733;51.178;4.450;2022-07-06T15:28:47;27.30;63.80
25937;DHT22;13733;51.178;4.450;2022-07-06T15:31:13;27.00;64.60
25937;DHT22;13733;51.178;4.450;2022-07-06T15:33:39;26.90;66.00